Terminal Aerodrome Forecast
Issued by NWS Cleveland, OH

Home | Current Version | Previous Version | Text Only | Print | Product List | Glossary Off
Versions: 1 2 3 4 5 6 7 8 9 10 11 12 13 14 15 16 17 18

000
FTUS41 KCLE 280800 AAA
TAFTOL
TAF AMD
KTOL 280806Z 2808/2906 01003KT P6SM FEW020 SCT250
     FM280930 05005KT P6SM BKN020
     FM281700 05005KT P6SM FEW030
     FM282300 VRB03KT P6SM SCT250=

USA.gov is the U.S. government's official web portal to all federal, state and local government web resources and services.